National Weather Service Raw Text Product

Displaying AFOS PIL: TAFJXN Received: 2019-02-17 23:37 UTC


788 
FTUS43 KGRR 172337
TAFJXN
TAF
KJXN 172337Z 1800/1824 04012KT 1SM -SN BR OVC021
     FM180100 05012KT P6SM OVC018
     FM180200 06006KT 4SM -FZDZ BR OVC015
     FM180300 06009KT 1 1/2SM -SN BR OVC012
     FM181000 02010KT 5SM -SHSN OVC025
     FM181400 02006KT P6SM OVC015
     FM182100 32006KT P6SM BKN050=